Observation data for Fluvanna on 04/22/2019      Previous  Date  Next       Current Mesonet Observations  Soil Data  Daily Summary Page  Observations in Plain Language
KFVS 220500Z 17011KT 20/11 A2991 RMK A01 T01980108  RH  058%=      5-min Rain = 0
KFVS 220505Z 17011KT 20/11 A2991 RMK A01 T01970110  RH  059%=      5-min Rain = 0
KFVS 220510Z 17010KT 20/11 A2991 RMK A01 T01960112  RH  060%=      5-min Rain = 0
KFVS 220515Z 17010KT 20/11 A2991 RMK A01 T01950113  RH  061%=      5-min Rain = 0
KFVS 220520Z 17010G16KT 20/12 A2991 RMK A01 T01950115  RH  062%=      5-min Rain = 0
KFVS 220525Z 18012KT 20/12 A2991 RMK A01 T01970117  RH  062%=      5-min Rain = 0
KFVS 220530Z 18013KT 20/12 A2991 RMK A01 T02020120  RH  062%=      5-min Rain = 0
KFVS 220535Z 18013KT 20/12 A2991 RMK A01 T02030122  RH  062%=      5-min Rain = 0
KFVS 220540Z 18013KT 20/12 A2991 RMK A01 T02030124  RH  063%=      5-min Rain = 0
KFVS 220545Z 18012KT 20/13 A2991 RMK A01 T02020125  RH  063%=      5-min Rain = 0
KFVS 220550Z 18012KT 20/13 A2992 RMK A01 T02010126  RH  064%=      5-min Rain = 0
KFVS 220555Z 18012KT 20/13 A2992 RMK A01 T02000127  RH  065%=      5-min Rain = 0
KFVS 220600Z 17012KT 20/13 A2992 RMK A01 T02000128  RH  066%=      5-min Rain = 0
KFVS 220605Z 17012KT 20/13 A2992 RMK A01 T02000128  RH  066%=      5-min Rain = 0
KFVS 220610Z 18012KT 20/13 A2992 RMK A01 T01980128  RH  067%=      5-min Rain = 0
KFVS 220615Z 18012KT 20/13 A2992 RMK A01 T01970129  RH  067%=      5-min Rain = 0
KFVS 220620Z 18011KT 20/13 A2992 RMK A01 T01960129  RH  068%=      5-min Rain = 0
KFVS 220625Z 18011KT 19/13 A2992 RMK A01 T01930129  RH  069%=      5-min Rain = 0
KFVS 220630Z 18011KT 19/13 A2992 RMK A01 T01920128  RH  069%=      5-min Rain = 0
KFVS 220635Z 19011G16KT 19/13 A2992 RMK A01 T01910129  RH  070%=      5-min Rain = 0
KFVS 220640Z 19011KT 19/13 A2992 RMK A01 T01910129  RH  070%=      5-min Rain = 0
KFVS 220645Z 19010KT 19/13 A2992 RMK A01 T01900129  RH  070%=      5-min Rain = 0
KFVS 220650Z 18010KT 19/13 A2992 RMK A01 T01900129  RH  071%=      5-min Rain = 0
KFVS 220655Z 17010KT 19/13 A2992 RMK A01 T01880129  RH  071%=      5-min Rain = 0
KFVS 220700Z 16009KT 19/13 A2992 RMK A01 T01870129  RH  072%=      5-min Rain = 0
KFVS 220705Z 16009KT 18/13 A2992 RMK A01 T01820128  RH  074%=      5-min Rain = 0
KFVS 220710Z 16009KT 18/13 A2992 RMK A01 T01810128  RH  074%=      5-min Rain = 0
KFVS 220715Z 16009KT 18/13 A2992 RMK A01 T01790128  RH  075%=      5-min Rain = 0
KFVS 220720Z 17009KT 18/13 A2992 RMK A01 T01790128  RH  075%=      5-min Rain = 0
KFVS 220725Z 17009KT 18/13 A2992 RMK A01 T01790128  RH  075%=      5-min Rain = 0
KFVS 220730Z 17008KT 18/13 A2991 RMK A01 T01780128  RH  076%=      5-min Rain = 0
KFVS 220735Z 17008KT 18/13 A2991 RMK A01 T01770129  RH  076%=      5-min Rain = 0
KFVS 220740Z 17009KT 18/13 A2991 RMK A01 T01770129  RH  076%=      5-min Rain = 0
KFVS 220745Z 17010KT 18/13 A2991 RMK A01 T01780130  RH  076%=      5-min Rain = 0
KFVS 220750Z 17010KT 18/13 A2991 RMK A01 T01790130  RH  076%=      5-min Rain = 0
KFVS 220755Z 17009KT 18/13 A2991 RMK A01 T01770130  RH  077%=      5-min Rain = 0
KFVS 220800Z 17010KT 18/13 A2991 RMK A01 T01770130  RH  077%=      5-min Rain = 0
KFVS 220805Z 17009KT 18/13 A2991 RMK A01 T01770130  RH  077%=      5-min Rain = 0
KFVS 220810Z 16009KT 18/13 A2991 RMK A01 T01750130  RH  078%=      5-min Rain = 0
KFVS 220815Z 16009KT 17/13 A2991 RMK A01 T01730130  RH  078%=      5-min Rain = 0
KFVS 220820Z 16009KT 17/13 A2991 RMK A01 T01730130  RH  079%=      5-min Rain = 0
KFVS 220825Z 16008KT 17/13 A2991 RMK A01 T01730130  RH  079%=      5-min Rain = 0
KFVS 220830Z 16009KT 17/13 A2991 RMK A01 T01730129  RH  079%=      5-min Rain = 0
KFVS 220835Z 16009KT 17/13 A2992 RMK A01 T01710130  RH  080%=      5-min Rain = 0
KFVS 220840Z 15009KT 17/13 A2992 RMK A01 T01700130  RH  080%=      5-min Rain = 0
KFVS 220845Z 15009KT 17/13 A2992 RMK A01 T01710130  RH  080%=      5-min Rain = 0
KFVS 220850Z 16009KT 17/13 A2992 RMK A01 T01710130  RH  080%=      5-min Rain = 0
KFVS 220855Z 16010KT 17/13 A2992 RMK A01 T01730131  RH  079%=      5-min Rain = 0
KFVS 220900Z 16010KT 17/13 A2992 RMK A01 T01730131  RH  079%=      5-min Rain = 0
KFVS 220905Z 16011KT 17/13 A2991 RMK A01 T01730130  RH  079%=      5-min Rain = 0
KFVS 220910Z 17010KT 17/13 A2991 RMK A01 T01740130  RH  079%=      5-min Rain = 0
KFVS 220915Z 17011KT 17/13 A2991 RMK A01 T01730130  RH  079%=      5-min Rain = 0
KFVS 220920Z 17011KT 17/13 A2991 RMK A01 T01730129  RH  079%=      5-min Rain = 0
KFVS 220925Z 17011KT 17/13 A2991 RMK A01 T01740130  RH  078%=      5-min Rain = 0
KFVS 220930Z 17011G16KT 17/13 A2991 RMK A01 T01740130  RH  078%=      5-min Rain = 0
KFVS 220935Z 17013KT 18/13 A2991 RMK A01 T01750130  RH  078%=      5-min Rain = 0
KFVS 220940Z 17013KT 18/13 A2991 RMK A01 T01760130  RH  077%=      5-min Rain = 0
KFVS 220945Z 18013KT 18/13 A2991 RMK A01 T01760130  RH  078%=      5-min Rain = 0
KFVS 220950Z 17013KT 18/13 A2991 RMK A01 T01760130  RH  078%=      5-min Rain = 0
KFVS 220955Z 17014KT 18/13 A2991 RMK A01 T01770130  RH  077%=      5-min Rain = 0
KFVS 221000Z 17013KT 18/13 A2991 RMK A01 T01770130  RH  077%=      5-min Rain = 0
KFVS 221005Z 17013KT 18/13 A2991 RMK A01 T01770131  RH  077%=      5-min Rain = 0
KFVS 221010Z 17013KT 18/13 A2991 RMK A01 T01770131  RH  078%=      5-min Rain = 0
KFVS 221015Z 17013KT 18/13 A2991 RMK A01 T01760131  RH  078%=      5-min Rain = 0
KFVS 221020Z 18013KT 18/13 A2991 RMK A01 T01760131  RH  078%=      5-min Rain = 0
KFVS 221025Z 17013KT 18/13 A2991 RMK A01 T01760131  RH  078%=      5-min Rain = 0
KFVS 221030Z 17013KT 18/13 A2991 RMK A01 T01750131  RH  078%=      5-min Rain = 0
KFVS 221035Z 17012KT 17/13 A2991 RMK A01 T01740131  RH  079%=      5-min Rain = 0
KFVS 221040Z 17012KT 17/13 A2991 RMK A01 T01730131  RH  079%=      5-min Rain = 0
KFVS 221045Z 17011KT 17/13 A2991 RMK A01 T01720131  RH  080%=      5-min Rain = 0
KFVS 221050Z 18010KT 17/13 A2991 RMK A01 T01700130  RH  080%=      5-min Rain = 0
KFVS 221055Z 17010KT 17/13 A2991 RMK A01 T01690130  RH  081%=      5-min Rain = 0
KFVS 221100Z 17010KT 17/13 A2991 RMK A01 T01680130  RH  082%=      5-min Rain = 0
KFVS 221105Z 17010KT 17/13 A2991 RMK A01 T01680130  RH  082%=      5-min Rain = 0
KFVS 221110Z 17008KT 17/13 A2991 RMK A01 T01660130  RH  082%=      5-min Rain = 0
KFVS 221115Z 17008KT 16/13 A2991 RMK A01 T01640130  RH  083%=      5-min Rain = 0
KFVS 221120Z 17009KT 16/13 A2991 RMK A01 T01640129  RH  083%=      5-min Rain = 0
KFVS 221125Z 17009KT 16/13 A2992 RMK A01 T01640129  RH  083%=      5-min Rain = 0
KFVS 221130Z 17009KT 16/13 A2992 RMK A01 T01630129  RH  083%=      5-min Rain = 0
KFVS 221135Z 17009KT 16/13 A2992 RMK A01 T01620129  RH  084%=      5-min Rain = 0
KFVS 221140Z 17009KT 16/13 A2992 RMK A01 T01600128  RH  085%=      5-min Rain = 0
KFVS 221145Z 17010KT 16/13 A2992 RMK A01 T01600129  RH  085%=      5-min Rain = 0
KFVS 221150Z 17010KT 16/13 A2992 RMK A01 T01600129  RH  085%=      5-min Rain = 0
KFVS 221155Z 17010KT 16/13 A2993 RMK A01 T01600129  RH  085%=      5-min Rain = 0
KFVS 221200Z 17010KT 16/13 A2993 RMK A01 T01600129  RH  085%=      5-min Rain = 0
KFVS 221205Z 17009KT 16/13 A2993 RMK A01 T01590129  RH  086%=      5-min Rain = 0
KFVS 221210Z 17010KT 16/13 A2993 RMK A01 T01590130  RH  086%=      5-min Rain = 0
KFVS 221215Z 18010KT 16/13 A2993 RMK A01 T01570129  RH  087%=      5-min Rain = 0
KFVS 221220Z 18010KT 16/13 A2994 RMK A01 T01570130  RH  087%=      5-min Rain = 0
KFVS 221225Z 18010KT 16/13 A2994 RMK A01 T01560130  RH  088%=      5-min Rain = 0
KFVS 221230Z 18010KT 16/13 A2994 RMK A01 T01550130  RH  088%=      5-min Rain = 0
KFVS 221235Z 18009KT 16/13 A2994 RMK A01 T01550130  RH  089%=      5-min Rain = 0
KFVS 221240Z 17009KT 15/13 A2995 RMK A01 T01540130  RH  089%=      5-min Rain = 0
KFVS 221245Z 17010KT 16/13 A2995 RMK A01 T01550131  RH  089%=      5-min Rain = 0
KFVS 221250Z 17010KT 16/13 A2995 RMK A01 T01570132  RH  089%=      5-min Rain = 0
KFVS 221255Z 17010KT 16/13 A2994 RMK A01 T01580133  RH  089%=      5-min Rain = 0
KFVS 221300Z 17010KT 16/13 A2994 RMK A01 T01600134  RH  088%=      5-min Rain = 0
KFVS 221305Z 17010KT 16/14 A2995 RMK A01 T01620135  RH  088%=      5-min Rain = 0
KFVS 221310Z 18010KT 16/14 A2995 RMK A01 T01610135  RH  088%=      5-min Rain = 0
KFVS 221315Z 17009KT 16/14 A2995 RMK A01 T01610135  RH  088%=      5-min Rain = 0
KFVS 221320Z 17010KT 16/14 A2996 RMK A01 T01610135  RH  088%=      5-min Rain = 0
KFVS 221325Z 17009KT 16/14 A2996 RMK A01 T01610135  RH  088%=      5-min Rain = 0
KFVS 221330Z 17009KT 16/14 A2996 RMK A01 T01620136  RH  088%=      5-min Rain = 0
KFVS 221335Z 17010KT 16/14 A2997 RMK A01 T01630136  RH  088%=      5-min Rain = 0
KFVS 221340Z 18009KT 16/14 A2997 RMK A01 T01640136  RH  087%=      5-min Rain = 0
KFVS 221345Z 19005KT 17/14 A2999 RMK A01 T01660136  RH  086%=      5-min Rain = 0
KFVS 221350Z 34007KT 17/14 A30 RMK A01 T01680138  RH  086%=      5-min Rain = 0
KFVS 221355Z 33004KT 17/14 A30 RMK A01 T01700139  RH  086%=      5-min Rain = 0
KFVS 221400Z 14003KT 17/14 A30 RMK A01 T01700136  RH  084%=      5-min Rain = 0
KFVS 221405Z 35005KT 17/14 A30 RMK A01 T01710137  RH  084%=      5-min Rain = 0
KFVS 221410Z 17002KT 17/14 A2999 RMK A01 T01710136  RH  083%=      5-min Rain = 0
KFVS 221415Z 00003KT 17/14 A3001 RMK A01 T01720136  RH  083%=      5-min Rain = 0
KFVS 221420Z 35003KT 17/14 A3001 RMK A01 T01730137  RH  083%=      5-min Rain = 0
KFVS 221425Z 20002KT 17/14 A3001 RMK A01 T01730137  RH  082%=      5-min Rain = 0
KFVS 221430Z 02003KT 18/14 A3002 RMK A01 T01750137  RH  082%=      5-min Rain = 0
KFVS 221435Z 01002KT 17/14 A3001 RMK A01 T01740136  RH  082%=      5-min Rain = 0
KFVS 221440Z 15003KT 18/14 A30 RMK A01 T01760135  RH  080%=      5-min Rain = 0
KFVS 221445Z 01004KT 18/14 A3001 RMK A01 T01770137  RH  080%=      5-min Rain = 0
KFVS 221450Z 15005KT 18/14 A30 RMK A01 T01770137  RH  080%=      5-min Rain = 0
KFVS 221455Z 03004KT 18/14 A3001 RMK A01 T01820139  RH  079%=      5-min Rain = 0
KFVS 221500Z 06004KT 18/14 A3002 RMK A01 T01790136  RH  079%=      5-min Rain = 0
KFVS 221505Z 14007KT 18/14 A30 RMK A01 T01820139  RH  079%=      5-min Rain = 0
KFVS 221510Z 02003KT 18/14 A3002 RMK A01 T01830137  RH  077%=      5-min Rain = 0
KFVS 221515Z 10006KT 18/14 A3001 RMK A01 T01820138  RH  079%=      5-min Rain = 0
KFVS 221520Z 14007KT 19/14 A30 RMK A01 T01870140  RH  078%=      5-min Rain = 0
KFVS 221525Z 09002KT 19/14 A3002 RMK A01 T01880137  RH  075%=      5-min Rain = 0
KFVS 221530Z 13006KT 19/14 A3001 RMK A01 T01850137  RH  077%=      5-min Rain = 0
KFVS 221535Z 14006KT 19/14 A3001 RMK A01 T01890138  RH  075%=      5-min Rain = 0
KFVS 221540Z 11005KT 19/14 A3001 RMK A01 T01890137  RH  075%=      5-min Rain = 0
KFVS 221545Z 11006KT 19/14 A3001 RMK A01 T01870136  RH  075%=      5-min Rain = 0
KFVS 221550Z 16005KT 19/14 A3001 RMK A01 T01900136  RH  074%=      5-min Rain = 0
KFVS 221555Z 14007KT 19/14 A3002 RMK A01 T01900136  RH  074%=      5-min Rain = 0
KFVS 221600Z 13006KT 19/14 A3002 RMK A01 T01890137  RH  075%=      5-min Rain = 0
KFVS 221605Z 16006KT 19/14 A3001 RMK A01 T01920136  RH  073%=      5-min Rain = 0
KFVS 221610Z 09005KT 19/14 A3002 RMK A01 T01920136  RH  073%=      5-min Rain = 0
KFVS 221615Z 10004KT 19/14 A3001 RMK A01 T01930137  RH  073%=      5-min Rain = 0
KFVS 221620Z 09005KT 20/14 A30 RMK A01 T01970139  RH  072%=      5-min Rain = 0
KFVS 221625Z 35002KT 20/14 A3001 RMK A01 T01990135  RH  069%=      5-min Rain = 0
KFVS 221630Z 15006KT 20/14 A3001 RMK A01 T02010136  RH  069%=      5-min Rain = 0
KFVS 221635Z 16007KT 20/14 A3002 RMK A01 T02010137  RH  069%=      5-min Rain = 0
KFVS 221640Z 17005KT 20/14 A3003 RMK A01 T02030136  RH  068%=      5-min Rain = 0
KFVS 221645Z 12007KT 20/14 A3003 RMK A01 T02010138  RH  070%=      5-min Rain = 0
KFVS 221650Z 16007KT 21/14 A3002 RMK A01 T02050139  RH  069%=      5-min Rain = 0
KFVS 221655Z 14004KT 21/14 A3002 RMK A01 T02050136  RH  067%=      5-min Rain = 0
KFVS 221700Z 14004KT 21/14 A3002 RMK A01 T02050136  RH  067%=      5-min Rain = 0
KFVS 221705Z 15005KT 21/14 A3002 RMK A01 T02080138  RH  067%=      5-min Rain = 0
KFVS 221710Z 09005KT 21/14 A3001 RMK A01 T02090139  RH  067%=      5-min Rain = 0
KFVS 221715Z 06005KT 21/14 A3001 RMK A01 T02080139  RH  067%=      5-min Rain = 0
KFVS 221720Z 08005KT 21/14 A3001 RMK A01 T02090139  RH  067%=      5-min Rain = 0
KFVS 221725Z 11004KT 21/14 A3001 RMK A01 T02130142  RH  067%=      5-min Rain = 0
KFVS 221730Z 10005KT 22/14 A3001 RMK A01 T02150140  RH  065%=      5-min Rain = 0
KFVS 221735Z 14004G10KT 22/14 A3001 RMK A01 T02150140  RH  065%=      5-min Rain = 0
KFVS 221740Z 09005KT 22/14 A30 RMK A01 T02190142  RH  065%=      5-min Rain = 0
KFVS 221745Z 11007KT 22/14 A30 RMK A01 T02170143  RH  066%=      5-min Rain = 0
KFVS 221750Z 10007KT 22/14 A3001 RMK A01 T02160144  RH  066%=      5-min Rain = 0
KFVS 221755Z 10005KT 21/14 A3001 RMK A01 T02130141  RH  066%=      5-min Rain = 0
KFVS 221800Z 12006KT 22/14 A3001 RMK A01 T02160142  RH  066%=      5-min Rain = 0
KFVS 221805Z 13006KT 22/14 A3001 RMK A01 T02160142  RH  065%=      5-min Rain = 0
KFVS 221810Z 11007KT 22/15 A3001 RMK A01 T02180145  RH  066%=      5-min Rain = 0
KFVS 221815Z 13007KT 22/14 A30 RMK A01 T02210144  RH  065%=      5-min Rain = 0
KFVS 221820Z 12005KT 22/14 A30 RMK A01 T02210143  RH  064%=      5-min Rain = 0
KFVS 221825Z 11007KT 22/15 A30 RMK A01 T02230146  RH  064%=      5-min Rain = 0
KFVS 221830Z 10008KT 22/15 A30 RMK A01 T02220146  RH  065%=      5-min Rain = 0
KFVS 221835Z 14008KT 22/15 A30 RMK A01 T02220146  RH  065%=      5-min Rain = 0
KFVS 221840Z 14007KT 22/14 A30 RMK A01 T02240144  RH  063%=      5-min Rain = 0
KFVS 221845Z 11006KT 22/14 A30 RMK A01 T02220144  RH  064%=      5-min Rain = 0
KFVS 221850Z 09007KT 22/14 A30 RMK A01 T02190144  RH  065%=      5-min Rain = 0
KFVS 221855Z 10008KT 22/14 A30 RMK A01 T02170144  RH  066%=      5-min Rain = 0
KFVS 221900Z 09007KT 22/15 A30 RMK A01 T02190146  RH  066%=      5-min Rain = 0
KFVS 221905Z 10007KT 22/15 A30 RMK A01 T02230148  RH  065%=      5-min Rain = 0
KFVS 221910Z 12006KT 22/15 A30 RMK A01 T02240146  RH  064%=      5-min Rain = 0
KFVS 221915Z 11006KT 22/15 A30 RMK A01 T02240146  RH  064%=      5-min Rain = 0
KFVS 221920Z 09008KT 22/15 A3001 RMK A01 T02210146  RH  065%=      5-min Rain = 0
KFVS 221925Z 10005KT 22/15 A3001 RMK A01 T02190147  RH  067%=      5-min Rain = 0
KFVS 221930Z 10007KT 22/15 A3001 RMK A01 T02210148  RH  066%=      5-min Rain = 0
KFVS 221935Z 10006KT 22/15 A3001 RMK A01 T02200149  RH  067%=      5-min Rain = 0
KFVS 221940Z 10006KT 22/15 A3001 RMK A01 T02200149  RH  067%=      5-min Rain = 0
KFVS 221945Z 10007KT 22/15 A3001 RMK A01 T02200148  RH  067%=      5-min Rain = 0
KFVS 221950Z 09007KT 22/15 A3001 RMK A01 T02210149  RH  066%=      5-min Rain = 0
KFVS 221955Z 08006KT 22/15 A30 RMK A01 T02230150  RH  066%=      5-min Rain = 0
KFVS 222000Z 07007KT 22/15 A30 RMK A01 T02240150  RH  065%=      5-min Rain = 0
KFVS 222005Z 08006KT 23/15 A30 RMK A01 T02260149  RH  065%=      5-min Rain = 0
KFVS 222010Z 07004KT 23/15 A2999 RMK A01 T02300148  RH  063%=      5-min Rain = 0
KFVS 222015Z 04011G17KT 23/14 A2999 RMK A01 T02260142  RH  062%=      5-min Rain = 0
KFVS 222020Z 04012KT 22/14 A2999 RMK A01 T02150137  RH  064%=      5-min Rain = 0
KFVS 222025Z 04013KT 21/14 A2999 RMK A01 T02100135  RH  065%=      5-min Rain = 0
KFVS 222030Z 04012G17KT 21/14 A2999 RMK A01 T02100137  RH  066%=      5-min Rain = 0
KFVS 222035Z 04012KT 21/14 A2999 RMK A01 T02130139  RH  065%=      5-min Rain = 0
KFVS 222040Z 05014KT 21/14 A2999 RMK A01 T02120138  RH  065%=      5-min Rain = 0
KFVS 222045Z 05013KT 21/14 A2999 RMK A01 T02090138  RH  067%=      5-min Rain = 0
KFVS 222050Z 05013KT 21/14 A2999 RMK A01 T02080139  RH  067%=      5-min Rain = 0
KFVS 222055Z 05013KT 21/14 A2999 RMK A01 T02080138  RH  067%=      5-min Rain = 0
KFVS 222100Z 05013KT 21/14 A2999 RMK A01 T02090139  RH  067%=      5-min Rain = 0
KFVS 222105Z 04013KT 21/14 A2999 RMK A01 T02070136  RH  067%=      5-min Rain = 0
KFVS 222110Z 04011KT 21/14 A30 RMK A01 T02050136  RH  067%=      5-min Rain = 0
KFVS 222115Z 04012KT 21/14 A30 RMK A01 T02050137  RH  068%=      5-min Rain = 0
KFVS 222120Z 05013KT 21/14 A30 RMK A01 T02050136  RH  067%=      5-min Rain = 0
KFVS 222125Z 05011KT 20/14 A30 RMK A01 T02040137  RH  068%=      5-min Rain = 0
KFVS 222130Z 04010KT 20/14 A30 RMK A01 T02020135  RH  068%=      5-min Rain = 0
KFVS 222135Z 03010KT 20/13 A30 RMK A01 T02010134  RH  068%=      5-min Rain = 0
KFVS 222140Z 04011KT 20/14 A3001 RMK A01 T02000135  RH  069%=      5-min Rain = 0
KFVS 222145Z 04011KT 20/14 A3001 RMK A01 T02000135  RH  069%=      5-min Rain = 0
KFVS 222150Z 04009KT 20/14 A3001 RMK A01 T01990136  RH  070%=      5-min Rain = 0
KFVS 222155Z 04010KT 20/14 A3001 RMK A01 T01980138  RH  071%=      5-min Rain = 0
KFVS 222200Z 04010KT 20/14 A3001 RMK A01 T01960137  RH  072%=      5-min Rain = 0
KFVS 222205Z 03011KT 19/14 A3001 RMK A01 T01940135  RH  071%=      5-min Rain = 0
KFVS 222210Z 03010KT 19/14 A3001 RMK A01 T01890139  RH  076%=      5-min Rain = 0.01
KFVS 222215Z 03012KT 19/14 A3001 RMK A01 T01850140  RH  078%=      5-min Rain = 0
KFVS 222220Z 03012KT 18/14 A30 RMK A01 T01840140  RH  079%=      5-min Rain = 0
KFVS 222225Z 02011KT 18/14 A30 RMK A01 T01830141  RH  080%=      5-min Rain = 0
KFVS 222230Z 01012KT 18/14 A30 RMK A01 T01810140  RH  080%=      5-min Rain = 0
KFVS 222235Z 01011KT 18/14 A3001 RMK A01 T01800140  RH  081%=      5-min Rain = 0
KFVS 222240Z 03012G18KT 18/14 A30 RMK A01 T01800140  RH  081%=      5-min Rain = 0
KFVS 222245Z 03015KT 18/14 A2998 RMK A01 T01790139  RH  081%=      5-min Rain = 0
KFVS 222250Z 03011KT 18/14 A2999 RMK A01 T01800141  RH  081%=      5-min Rain = 0
KFVS 222255Z 03007KT 18/14 A3001 RMK A01 T01810140  RH  080%=      5-min Rain = 0
KFVS 222300Z 02007KT 18/14 A3001 RMK A01 T01810139  RH  079%=      5-min Rain = 0
KFVS 222305Z 02007KT 18/14 A3002 RMK A01 T01820140  RH  080%=      5-min Rain = 0
KFVS 222310Z 03008KT 18/14 A3002 RMK A01 T01820142  RH  081%=      5-min Rain = 0
KFVS 222315Z 03008KT 18/14 A3002 RMK A01 T01820141  RH  080%=      5-min Rain = 0
KFVS 222320Z 03009KT 18/14 A3001 RMK A01 T01820139  RH  079%=      5-min Rain = 0
KFVS 222325Z 03010KT 18/14 A30 RMK A01 T01820140  RH  080%=      5-min Rain = 0
KFVS 222330Z 04009KT 18/14 A30 RMK A01 T01820141  RH  080%=      5-min Rain = 0
KFVS 222335Z 04010KT 18/14 A30 RMK A01 T01820138  RH  079%=      5-min Rain = 0
KFVS 222340Z 05009KT 18/14 A30 RMK A01 T01820138  RH  079%=      5-min Rain = 0
KFVS 222345Z 05009KT 18/14 A3001 RMK A01 T01820136  RH  078%=      5-min Rain = 0
KFVS 222350Z 04009KT 18/14 A30 RMK A01 T01820135  RH  077%=      5-min Rain = 0
KFVS 222355Z 04010KT 18/13 A30 RMK A01 T01810133  RH  076%=      5-min Rain = 0
KFVS 230000Z 04010KT 18/13 A30 RMK A01 T01800132  RH  076%=      5-min Rain = 0
KFVS 230005Z 03009KT 18/13 A30 RMK A01 T01790133  RH  077%=      5-min Rain = 0
KFVS 230010Z 04008KT 18/14 A3001 RMK A01 T01760135  RH  080%=      5-min Rain = 0.01
KFVS 230015Z 03009KT 17/14 A3001 RMK A01 T01740135  RH  081%=      5-min Rain = 0
KFVS 230020Z 03009KT 17/14 A30 RMK A01 T01730136  RH  082%=      5-min Rain = 0
KFVS 230025Z 03012KT 17/14 A2999 RMK A01 T01720137  RH  083%=      5-min Rain = 0
KFVS 230030Z 02009KT 17/14 A2999 RMK A01 T01720137  RH  083%=      5-min Rain = 0
KFVS 230035Z 03011G17KT 17/14 A2998 RMK A01 T01720138  RH  084%=      5-min Rain = 0.01
KFVS 230040Z 03014KT 17/14 A2996 RMK A01 T01710137  RH  084%=      5-min Rain = 0
KFVS 230045Z 03012G17KT 17/14 A2997 RMK A01 T01710136  RH  083%=      5-min Rain = 0
KFVS 230050Z 03010KT 17/14 A2998 RMK A01 T01700135  RH  083%=      5-min Rain = 0
KFVS 230055Z 03010KT 17/14 A2999 RMK A01 T01690135  RH  083%=      5-min Rain = 0
KFVS 230100Z 03010KT 17/14 A2998 RMK A01 T01680136  RH  085%=      5-min Rain = 0
KFVS 230105Z 03012KT 17/14 A2999 RMK A01 T01670135  RH  085%=      5-min Rain = 0
KFVS 230110Z 03010KT 17/14 A2999 RMK A01 T01660135  RH  085%=      5-min Rain = 0
KFVS 230115Z 03009KT 17/14 A2999 RMK A01 T01660136  RH  086%=      5-min Rain = 0
KFVS 230120Z 02009KT 17/14 A2999 RMK A01 T01650136  RH  086%=      5-min Rain = 0
KFVS 230125Z 02010KT 17/14 A2999 RMK A01 T01650136  RH  086%=      5-min Rain = 0
KFVS 230130Z 01009KT 17/14 A30 RMK A01 T01650136  RH  086%=      5-min Rain = 0
KFVS 230135Z 01010KT 17/14 A30 RMK A01 T01650137  RH  087%=      5-min Rain = 0
KFVS 230140Z 01009KT 17/14 A30 RMK A01 T01650137  RH  087%=      5-min Rain = 0
KFVS 230145Z 02009KT 17/14 A30 RMK A01 T01650137  RH  087%=      5-min Rain = 0
KFVS 230150Z 02008KT 17/14 A30 RMK A01 T01650138  RH  088%=      5-min Rain = 0
KFVS 230155Z 03008KT 17/14 A30 RMK A01 T01650138  RH  088%=      5-min Rain = 0
KFVS 230200Z 02008KT 16/14 A30 RMK A01 T01640138  RH  088%=      5-min Rain = 0
KFVS 230205Z 02008KT 16/14 A30 RMK A01 T01640138  RH  088%=      5-min Rain = 0
KFVS 230210Z 02008KT 16/14 A3001 RMK A01 T01640138  RH  088%=      5-min Rain = 0
KFVS 230215Z 02007KT 16/14 A3001 RMK A01 T01630138  RH  089%=      5-min Rain = 0
KFVS 230220Z 02009KT 16/14 A3001 RMK A01 T01630138  RH  089%=      5-min Rain = 0
KFVS 230225Z 02009KT 16/14 A3001 RMK A01 T01630138  RH  089%=      5-min Rain = 0
KFVS 230230Z 02009KT 16/14 A3001 RMK A01 T01630138  RH  089%=      5-min Rain = 0
KFVS 230235Z 02009KT 16/14 A3001 RMK A01 T01640137  RH  088%=      5-min Rain = 0
KFVS 230240Z 02009KT 16/14 A3001 RMK A01 T01640138  RH  088%=      5-min Rain = 0
KFVS 230245Z 01008KT 16/14 A3001 RMK A01 T01630137  RH  089%=      5-min Rain = 0
KFVS 230250Z 01008KT 16/14 A3001 RMK A01 T01620138  RH  089%=      5-min Rain = 0
KFVS 230255Z 02009KT 16/14 A3001 RMK A01 T01620138  RH  089%=      5-min Rain = 0
KFVS 230300Z 02007KT 16/14 A3001 RMK A01 T01620138  RH  089%=      5-min Rain = 0
KFVS 230305Z 02008KT 16/14 A3001 RMK A01 T01610138  RH  090%=      5-min Rain = 0
KFVS 230310Z 02009KT 16/14 A3001 RMK A01 T01620138  RH  089%=      5-min Rain = 0
KFVS 230315Z 02009KT 16/14 A30 RMK A01 T01610137  RH  089%=      5-min Rain = 0
KFVS 230320Z 02010KT 16/14 A30 RMK A01 T01600138  RH  090%=      5-min Rain = 0
KFVS 230325Z 02010KT 16/14 A30 RMK A01 T01600137  RH  090%=      5-min Rain = 0
KFVS 230330Z 02009KT 16/14 A30 RMK A01 T01600137  RH  090%=      5-min Rain = 0
KFVS 230335Z 01009G14KT 16/14 A30 RMK A01 T01600138  RH  090%=      5-min Rain = 0
KFVS 230340Z 02010KT 16/14 A30 RMK A01 T01600137  RH  090%=      5-min Rain = 0
KFVS 230345Z 03007KT 16/14 A30 RMK A01 T01600138  RH  090%=      5-min Rain = 0
KFVS 230350Z 03008KT 16/14 A3001 RMK A01 T01600138  RH  090%=      5-min Rain = 0
KFVS 230355Z 04008KT 16/14 A3001 RMK A01 T01600138  RH  090%=      5-min Rain = 0
KFVS 230400Z 04007KT 16/14 A3001 RMK A01 T01600138  RH  091%=      5-min Rain = 0
KFVS 230405Z 04007KT 16/14 A30 RMK A01 T01600139  RH  091%=      5-min Rain = 0
KFVS 230410Z 04009KT 16/14 A30 RMK A01 T01600139  RH  091%=      5-min Rain = 0
KFVS 230415Z 03009KT 16/14 A30 RMK A01 T01600139  RH  091%=      5-min Rain = 0
KFVS 230420Z 02009KT 16/14 A30 RMK A01 T01600139  RH  091%=      5-min Rain = 0
KFVS 230425Z 00009KT 16/14 A3001 RMK A01 T01600138  RH  091%=      5-min Rain = 0
KFVS 230430Z 35011KT 16/14 A3001 RMK A01 T01590138  RH  091%=      5-min Rain = 0
KFVS 230435Z 34010KT 16/14 A3001 RMK A01 T01590139  RH  091%=      5-min Rain = 0
KFVS 230440Z 34012KT 16/14 A3001 RMK A01 T01600139  RH  091%=      5-min Rain = 0
KFVS 230445Z 36012KT 16/14 A30 RMK A01 T01580138  RH  091%=      5-min Rain = 0
KFVS 230450Z 01012KT 16/14 A30 RMK A01 T01580138  RH  092%=      5-min Rain = 0
KFVS 230455Z 01011KT 16/14 A30 RMK A01 T01570137  RH  092%=      5-min Rain = 0

Page generated in 0.0155 seconds.